Watford City, ND

11:18 PM CST on December 09, 2019 (GMT -0600)
Watford City

Weather History for KS25 - October, 2019

Change the Weather History Date:

Monday, October 7, 2019

  Actual Average (WUND) Record (WUND)
Temperature  
Mean Temperature 50 °F -  
Max Temperature 68 °F - - (-1)
Min Temperature 33 °F - - (-1)
Degree Days  
Heating Degree Days 14    
Moisture  
Dew Point 35 °F    
Average Humidity 62    
Maximum Humidity 100    
Minimum Humidity 26    
Precipitation  
Precipitation 0.00 in - - ()
Sea Level Pressure  
Sea Level Pressure 29.89 in    
Wind  
Wind Speed 9 mph (SW)    
Max Wind Speed 18 mph    
Max Gust Speed 28 mph    
Visibility 10 miles    
Events      
Averages and records for this station are not official NWS values.
T = Trace of Precipitation, MM = Missing Value Source: NWS Daily Summary

Daily Weather History Graph

Daily Weather History Graph

Search for Another Location

Airport or City:

Astronomy

Oct. 07, 2019 Rise Set
Actual Time 8:00 AM CDT 7:20 PM CDT
Civil Twilight 7:29 AM CDT 7:51 PM CDT
Nautical Twilight 6:53 AM CDT 8:27 PM CDT
Astronomical Twilight 6:17 AM CDT 9:03 PM CDT
Moon 5:13 PM CDT (10/7) 1:23 AM CDT (10/7)
Length of Visible Light 12h 21m
Length of Day
11h 20m
Waxing Gibbous, 69% of the Moon is Illuminated
Oct 7
Waxing Gibbous
Oct 13
Full
Oct 21
Last Quarter
Oct 27
New
Nov 4
First Quarter

Hourly Weather History & Observations

Time (CDT) Temp. Windchill Dew Point Humidity Pressure Visibility Wind Dir Wind Speed Gust Speed Precip Events Conditions
12:15 AM 39.2 °F 33.6 °F 33.8 °F 81% 30.08 in 10.0 mi SW 8.1 mph - N/A   Clear
12:35 AM 39.2 °F 33.6 °F 33.8 °F 81% 30.08 in 10.0 mi SW 8.1 mph - N/A   Clear
12:55 AM 39.2 °F 33.0 °F 33.8 °F 81% 30.08 in 10.0 mi SW 9.2 mph - N/A   Clear
1:15 AM 37.4 °F 30.8 °F 33.8 °F 87% 30.07 in 10.0 mi WSW 9.2 mph - N/A   Clear
1:35 AM 37.4 °F 30.8 °F 33.8 °F 87% 30.07 in 10.0 mi SW 9.2 mph - N/A   Clear
1:55 AM 37.4 °F 30.3 °F 33.8 °F 87% 30.07 in 10.0 mi SW 10.4 mph - N/A   Clear
2:15 AM 37.4 °F 30.3 °F 33.8 °F 87% 30.07 in 10.0 mi SW 10.4 mph - N/A   Clear
2:35 AM 37.4 °F 30.3 °F 33.8 °F 87% 30.07 in 10.0 mi WSW 10.4 mph - N/A   Clear
2:55 AM 35.6 °F 29.2 °F 33.8 °F 93% 30.07 in 10.0 mi WSW 8.1 mph - N/A   Clear
3:15 AM 35.6 °F 31.7 °F 33.8 °F 93% 30.07 in 10.0 mi WSW 4.6 mph - N/A   Clear
3:35 AM 35.6 °F 29.2 °F 33.8 °F 93% 30.07 in 10.0 mi SW 8.1 mph - N/A   Clear
3:55 AM 35.6 °F 29.2 °F 33.8 °F 93% 30.06 in 10.0 mi SW 8.1 mph - N/A   Clear
4:15 AM 35.6 °F 29.9 °F 33.8 °F 93% 30.06 in 10.0 mi WSW 6.9 mph - N/A   Clear
4:35 AM 35.6 °F 30.7 °F 33.8 °F 93% 30.06 in 10.0 mi WSW 5.8 mph - N/A   Clear
4:55 AM 35.6 °F 30.7 °F 32.0 °F 87% 30.06 in 10.0 mi SW 5.8 mph - N/A   Clear
5:15 AM 35.6 °F 29.2 °F 33.8 °F 93% 30.05 in 10.0 mi WSW 8.1 mph - N/A   Clear
5:35 AM 35.6 °F 29.2 °F 33.8 °F 93% 30.05 in 10.0 mi SW 8.1 mph - N/A   Clear
5:55 AM 35.6 °F 30.7 °F 33.8 °F 93% 30.05 in 10.0 mi SW 5.8 mph - N/A   Clear
6:15 AM 33.8 °F 27.7 °F 33.8 °F 100% 30.04 in 10.0 mi WSW 6.9 mph - N/A   Clear
6:35 AM 33.8 °F 28.6 °F 33.8 °F 100% 30.03 in 10.0 mi WSW 5.8 mph - N/A   Clear
6:55 AM 33.8 °F 28.6 °F 33.8 °F 100% 30.03 in 10.0 mi WSW 5.8 mph - N/A   Clear
7:15 AM 33.8 °F 28.6 °F 32.0 °F 93% 30.03 in 10.0 mi WSW 5.8 mph - N/A   Clear
7:35 AM 33.8 °F 28.6 °F 32.0 °F 93% 30.02 in 10.0 mi WSW 5.8 mph - N/A   Clear
7:55 AM 33.8 °F 29.6 °F 32.0 °F 93% 30.02 in 10.0 mi WSW 4.6 mph - N/A   Clear
8:35 AM 33.8 °F 29.6 °F 33.8 °F 100% 30.01 in 10.0 mi WSW 4.6 mph - N/A   Clear
9:15 AM 37.4 °F 34.9 °F 35.6 °F 93% 30.00 in 10.0 mi WSW 3.5 mph - N/A   Clear
9:35 AM 41.0 °F - 37.4 °F 87% 29.99 in 10.0 mi Calm Calm - N/A   Clear
9:55 AM 44.6 °F - 37.4 °F 76% 29.99 in 10.0 mi Calm Calm - N/A   Clear
10:15 AM 50.0 °F - 37.4 °F 62% 29.99 in 10.0 mi SW 6.9 mph - N/A   Clear
10:35 AM 51.8 °F - 35.6 °F 54% 29.98 in 10.0 mi SW 11.5 mph - N/A   Clear
10:55 AM 53.6 °F - 35.6 °F 51% 29.97 in 10.0 mi SW 10.4 mph 17.3 mph N/A   Clear
11:15 AM 53.6 °F - 35.6 °F 51% 29.96 in 10.0 mi SSW 11.5 mph - N/A   Clear
11:35 AM 55.4 °F - 35.6 °F 47% 29.95 in 10.0 mi SSW 10.4 mph 17.3 mph N/A   Clear
11:55 AM 57.2 °F - 35.6 °F 44% 29.94 in 10.0 mi SSW 11.5 mph - N/A   Clear
12:15 PM 59.0 °F - 35.6 °F 42% 29.93 in 10.0 mi South 12.7 mph - N/A   Clear
12:35 PM 60.8 °F - 35.6 °F 39% 29.92 in 10.0 mi SW 13.8 mph - N/A   Clear
12:55 PM 60.8 °F - 35.6 °F 39% 29.91 in 10.0 mi SSW 11.5 mph 18.4 mph N/A   Clear
1:15 PM 62.6 °F - 35.6 °F 37% 29.90 in 10.0 mi SSW 12.7 mph 18.4 mph N/A   Clear
1:35 PM 62.6 °F - 37.4 °F 39% 29.89 in 10.0 mi SSW 13.8 mph 20.7 mph N/A   Clear
1:55 PM 64.4 °F - 37.4 °F 37% 29.87 in 10.0 mi SSW 15.0 mph - N/A   Clear
2:15 PM 64.4 °F - 37.4 °F 37% 29.85 in 10.0 mi SW 13.8 mph - N/A   Clear
2:35 PM 66.2 °F - 33.8 °F 30% 29.84 in 10.0 mi SW 16.1 mph 25.3 mph N/A   Clear
2:55 PM 68.0 °F - 33.8 °F 28% 29.82 in 10.0 mi SW 15.0 mph 21.9 mph N/A   Clear
3:15 PM 68.0 °F - 33.8 °F 28% 29.81 in 10.0 mi SW 15.0 mph 24.2 mph N/A   Clear
3:35 PM 68.0 °F - 33.8 °F 28% 29.79 in 10.0 mi SW 15.0 mph 25.3 mph N/A   Clear
3:55 PM 68.0 °F - 32.0 °F 26% 29.79 in 10.0 mi SW 18.4 mph 26.5 mph N/A   Clear
4:15 PM 68.0 °F - 32.0 °F 26% 29.78 in 10.0 mi SW 16.1 mph 27.6 mph N/A   Clear
4:35 PM 66.2 °F - 32.0 °F 28% 29.77 in 10.0 mi SW 13.8 mph - N/A   Clear
4:55 PM 68.0 °F - 32.0 °F 26% 29.76 in 10.0 mi WSW 15.0 mph 23.0 mph N/A   Clear
5:15 PM 68.0 °F - 33.8 °F 28% 29.76 in 10.0 mi SW 12.7 mph 18.4 mph N/A   Clear
5:35 PM 68.0 °F - 35.6 °F 30% 29.75 in 10.0 mi SW 9.2 mph - N/A   Clear
5:55 PM 66.2 °F - 35.6 °F 32% 29.74 in 10.0 mi SW 6.9 mph - N/A   Clear
6:15 PM 66.2 °F - 33.8 °F 30% 29.74 in 10.0 mi SW 8.1 mph - N/A   Clear
6:35 PM 60.8 °F - 35.6 °F 39% 29.73 in 10.0 mi SW 6.9 mph - N/A   Clear
6:55 PM 59.0 °F - 37.4 °F 45% 29.72 in 10.0 mi SW 6.9 mph - N/A   Clear
7:15 PM 57.2 °F - 35.6 °F 44% 29.72 in 10.0 mi SSW 5.8 mph - N/A   Clear
7:35 PM 59.0 °F - 35.6 °F 42% 29.71 in 10.0 mi South 6.9 mph - N/A   Clear
7:55 PM 53.6 °F - 35.6 °F 51% 29.70 in 10.0 mi South 6.9 mph - N/A   Clear
8:15 PM 55.4 °F - 35.6 °F 47% 29.69 in 10.0 mi South 9.2 mph - N/A   Clear
8:35 PM 55.4 °F - 35.6 °F 47% 29.68 in 10.0 mi South 10.4 mph - N/A   Clear
8:55 PM 53.6 °F - 35.6 °F 51% 29.68 in 10.0 mi South 6.9 mph - N/A   Clear
9:15 PM 50.0 °F - 35.6 °F 58% 29.67 in 10.0 mi SW 8.1 mph - N/A   Clear
9:35 PM 48.2 °F - 35.6 °F 62% 29.67 in 10.0 mi SSW 8.1 mph - N/A   Clear
10:15 PM 48.2 °F - 33.8 °F 58% 29.65 in 10.0 mi SW 8.1 mph - N/A   Clear
10:35 PM 48.2 °F - 33.8 °F 58% 29.65 in 10.0 mi SW 9.2 mph - N/A   Clear
10:55 PM 48.2 °F - 33.8 °F 58% 29.64 in 10.0 mi SW 9.2 mph - N/A   Clear
11:15 PM 51.8 °F - 33.8 °F 50% 29.64 in 10.0 mi SW 10.4 mph - N/A   Clear
11:35 PM 48.2 °F - 35.6 °F 62% 29.64 in 10.0 mi SW 8.1 mph - N/A   Clear
11:55 PM 44.6 °F 40.2 °F 35.6 °F 71% 29.64 in 10.0 mi SW 8.1 mph - N/A   Clear